createdAt,value
2023-03-30T00:01:41.854Z,101522.50
2023-03-30T00:04:11.519Z,101527.22
2023-03-30T00:06:39.233Z,101514.03
2023-03-30T00:09:06.284Z,101502.78
2023-03-30T00:11:34.161Z,101506.88
2023-03-30T00:14:01.485Z,101502.19
2023-03-30T00:16:27.939Z,101508.91
2023-03-30T00:18:54.375Z,101513.13
2023-03-30T00:21:21.244Z,101506.44
2023-03-30T00:23:48.232Z,101520.66
2023-03-30T00:26:15.202Z,101528.91
2023-03-30T00:28:42.188Z,101533.44
2023-03-30T00:31:10.712Z,101537.09
2023-03-30T00:33:45.454Z,101535.41
2023-03-30T00:36:13.721Z,101539.22
2023-03-30T00:38:40.592Z,101529.97
2023-03-30T00:41:07.691Z,101531.94
2023-03-30T00:43:34.752Z,101531.94
2023-03-30T00:46:01.549Z,101527.56
2023-03-30T00:48:34.465Z,101517.09
2023-03-30T00:51:09.446Z,101528.59
2023-03-30T00:53:38.656Z,101521.03
2023-03-30T00:56:10.122Z,101532.09
2023-03-30T00:58:38.693Z,101526.78
2023-03-30T01:01:10.290Z,101521.19
2023-03-30T01:03:43.352Z,101524.97
2023-03-30T01:06:10.894Z,101529.78
2023-03-30T01:08:38.407Z,101520.72
2023-03-30T01:11:06.885Z,101520.56
2023-03-30T01:13:39.858Z,101516.44
2023-03-30T01:16:15.573Z,101518.13
2023-03-30T01:18:55.554Z,101520.72
2023-03-30T01:21:34.113Z,101505.09
2023-03-30T01:24:27.576Z,101516.16
2023-03-30T01:27:21.944Z,101503.59
2023-03-30T01:30:04.257Z,101502.53
2023-03-30T01:32:39.631Z,101501.94
2023-03-30T01:35:28.258Z,101505.88
2023-03-30T01:38:32.468Z,101514.34
2023-03-30T01:41:11.521Z,101509.81
2023-03-30T01:43:57.799Z,101514.94
2023-03-30T01:46:31.523Z,101518.75
2023-03-30T01:49:05.820Z,101500.41
2023-03-30T01:51:48.824Z,101499.03
2023-03-30T01:54:31.412Z,101500.69
2023-03-30T01:57:06.673Z,101507.53
2023-03-30T01:59:48.603Z,101513.59
2023-03-30T02:02:17.495Z,101494.06
2023-03-30T02:04:45.719Z,101490.09
2023-03-30T02:07:20.201Z,101483.13
2023-03-30T02:09:50.847Z,101490.25
2023-03-30T02:12:19.420Z,101485.09
2023-03-30T02:14:49.222Z,101483.44
2023-03-30T02:17:20.081Z,101492.66
2023-03-30T02:19:46.698Z,101494.63
2023-03-30T02:22:15.508Z,101488.88
2023-03-30T02:24:44.777Z,101486.94
2023-03-30T02:27:11.642Z,101484.94
2023-03-30T02:29:43.213Z,101477.19
2023-03-30T02:32:23.134Z,101485.69
2023-03-30T02:35:09.286Z,101489.16
2023-03-30T02:37:38.493Z,101478.88
2023-03-30T02:40:32.095Z,101484.75
2023-03-30T02:43:17.047Z,101482.47
2023-03-30T02:46:21.539Z,101490.34
2023-03-30T02:49:03.270Z,101487.19
2023-03-30T02:51:42.142Z,101476.91
2023-03-30T02:54:21.198Z,101476.13
2023-03-30T02:57:03.937Z,101476.72
2023-03-30T02:59:39.047Z,101473.72
2023-03-30T03:02:13.870Z,101484.44
2023-03-30T03:04:43.563Z,101477.31
2023-03-30T03:07:14.242Z,101477.75
2023-03-30T03:09:41.144Z,101473.59
2023-03-30T03:12:07.898Z,101478.44
2023-03-30T03:14:34.283Z,101478.91
2023-03-30T03:17:00.802Z,101476.53
2023-03-30T03:19:27.226Z,101478.75
2023-03-30T03:21:53.622Z,101475.06
2023-03-30T03:24:20.054Z,101473.22
2023-03-30T03:26:46.438Z,101468.44
2023-03-30T03:29:12.986Z,101478.13
2023-03-30T03:31:39.618Z,101471.75
2023-03-30T03:34:06.765Z,101474.63
2023-03-30T03:36:33.144Z,101466.16
2023-03-30T03:38:59.553Z,101469.31
2023-03-30T03:41:26.337Z,101474.16
2023-03-30T03:43:52.813Z,101472.66
2023-03-30T03:46:19.242Z,101476.28
2023-03-30T03:48:46.181Z,101470.72
2023-03-30T03:51:12.688Z,101468.84
2023-03-30T03:53:39.090Z,101469.44
2023-03-30T03:56:05.745Z,101474.94
2023-03-30T03:58:32.132Z,101480.81
2023-03-30T04:01:02.988Z,101481.00
2023-03-30T04:03:29.955Z,101472.50
2023-03-30T04:06:00.747Z,101468.88
2023-03-30T04:08:28.544Z,101449.78
2023-03-30T04:10:55.052Z,101455.09
2023-03-30T04:13:21.561Z,101458.13
2023-03-30T04:15:47.947Z,101458.13
2023-03-30T04:18:15.542Z,101455.84
2023-03-30T04:20:42.051Z,101456.47
2023-03-30T04:23:09.747Z,101449.34
2023-03-30T04:25:36.266Z,101443.13
2023-03-30T04:28:04.943Z,101433.47
2023-03-30T04:30:31.519Z,101436.50
2023-03-30T04:33:04.643Z,101436.78
2023-03-30T04:35:34.581Z,101445.13
2023-03-30T04:38:02.215Z,101444.66
2023-03-30T04:40:29.378Z,101441.19
2023-03-30T04:43:02.052Z,101444.94
2023-03-30T04:45:29.701Z,101450.09
2023-03-30T04:47:56.361Z,101454.97
2023-03-30T04:50:22.835Z,101455.41
2023-03-30T04:52:49.210Z,101450.72
2023-03-30T04:55:15.621Z,101452.22
2023-03-30T04:57:42.081Z,101450.25
2023-03-30T05:00:09.328Z,101445.09
2023-03-30T05:02:36.265Z,101436.78
2023-03-30T05:05:02.869Z,101429.81
2023-03-30T05:07:29.316Z,101434.50
2023-03-30T05:09:55.739Z,101438.31
2023-03-30T05:12:22.141Z,101443.44
2023-03-30T05:14:48.580Z,101448.00
2023-03-30T05:17:15.434Z,101451.63
2023-03-30T05:19:42.020Z,101453.47
2023-03-30T05:22:08.508Z,101449.97
2023-03-30T05:24:34.966Z,101447.84
2023-03-30T05:27:02.285Z,101455.41
2023-03-30T05:29:28.719Z,101460.56
2023-03-30T05:31:55.180Z,101461.31
2023-03-30T05:34:21.576Z,101452.09
2023-03-30T05:36:47.979Z,101449.53
2023-03-30T05:39:14.517Z,101459.66
2023-03-30T05:41:41.104Z,101460.09
2023-03-30T05:44:07.747Z,101464.97
2023-03-30T05:46:34.206Z,101464.38
2023-03-30T05:49:01.089Z,101459.22
2023-03-30T05:51:27.564Z,101465.28
2023-03-30T05:53:53.929Z,101461.47
2023-03-30T05:56:20.474Z,101462.38
2023-03-30T05:58:47.019Z,101464.50
2023-03-30T06:01:13.480Z,101470.72
2023-03-30T06:03:40.304Z,101472.41
2023-03-30T06:06:07.954Z,101468.16
2023-03-30T06:08:34.425Z,101471.63
2023-03-30T06:11:01.802Z,101476.63
2023-03-30T06:13:28.625Z,101474.66
2023-03-30T06:15:55.131Z,101481.03
2023-03-30T06:18:21.586Z,101482.22
2023-03-30T06:20:48.918Z,101496.50
2023-03-30T06:23:16.415Z,101497.53
2023-03-30T06:25:46.873Z,101490.41
2023-03-30T06:28:13.268Z,101496.50
2023-03-30T06:30:39.716Z,101490.25
2023-03-30T06:33:06.226Z,101485.88
2023-03-30T06:35:32.880Z,101486.59
2023-03-30T06:37:59.339Z,101491.63
2023-03-30T06:40:25.741Z,101489.81
2023-03-30T06:42:52.154Z,101497.69
2023-03-30T06:45:18.669Z,101489.34
2023-03-30T06:47:46.180Z,101485.53
2023-03-30T06:50:13.372Z,101484.34
2023-03-30T06:52:39.873Z,101486.16
2023-03-30T06:55:06.632Z,101486.78
2023-03-30T06:57:33.130Z,101487.38
2023-03-30T06:59:59.592Z,101486.88
2023-03-30T07:02:26.509Z,101492.38
2023-03-30T07:04:53.267Z,101490.06
2023-03-30T07:07:20.913Z,101489.03
2023-03-30T07:09:47.327Z,101474.78
2023-03-30T07:12:13.765Z,101479.59
2023-03-30T07:14:40.211Z,101481.88
2023-03-30T07:17:07.884Z,101486.75
2023-03-30T07:19:34.594Z,101480.69
2023-03-30T07:22:01.284Z,101485.38
2023-03-30T07:24:29.878Z,101478.09
2023-03-30T07:26:56.444Z,101494.16
2023-03-30T07:29:23.243Z,101504.31
2023-03-30T07:31:49.656Z,101501.59
2023-03-30T07:34:17.100Z,101497.00
2023-03-30T07:36:43.517Z,101503.94
2023-03-30T07:39:11.109Z,101495.75
2023-03-30T07:41:37.617Z,101498.78
2023-03-30T07:44:04.148Z,101494.72
2023-03-30T07:46:31.125Z,101501.72
2023-03-30T07:48:57.954Z,101505.81
2023-03-30T07:51:25.918Z,101509.91
2023-03-30T07:53:54.456Z,101511.56
2023-03-30T07:56:21.066Z,101510.22
2023-03-30T07:58:47.461Z,101513.38
2023-03-30T08:01:13.986Z,101514.59
2023-03-30T08:03:40.506Z,101523.41
2023-03-30T08:06:07.409Z,101521.72
2023-03-30T08:08:34.486Z,101529.91
2023-03-30T08:11:01.269Z,101526.44
2023-03-30T08:13:29.756Z,101532.66
2023-03-30T08:15:56.328Z,101534.66
2023-03-30T08:18:22.749Z,101540.44
2023-03-30T08:20:53.748Z,101540.72
2023-03-30T08:23:21.948Z,101541.63
2023-03-30T08:25:52.447Z,101529.22
2023-03-30T08:28:21.168Z,101524.66
2023-03-30T08:30:48.032Z,101530.59
2023-03-30T08:33:15.842Z,101522.84
2023-03-30T08:35:49.418Z,101528.28
2023-03-30T08:38:17.229Z,101532.84
2023-03-30T08:40:48.439Z,101540.28
2023-03-30T08:43:36.745Z,101533.91
2023-03-30T08:46:04.022Z,101533.44
2023-03-30T08:48:37.743Z,101535.91
2023-03-30T08:51:24.709Z,101540.44
2023-03-30T08:53:56.517Z,101537.38
2023-03-30T08:56:27.613Z,101540.28
2023-03-30T08:59:03.010Z,101541.63
2023-03-30T09:01:53.884Z,101543.59
2023-03-30T09:04:27.797Z,101540.09
2023-03-30T09:07:12.193Z,101542.22
2023-03-30T09:09:47.235Z,101541.00
2023-03-30T09:12:34.313Z,101527.66
2023-03-30T09:15:06.368Z,101521.28
2023-03-30T09:17:32.780Z,101528.72
2023-03-30T09:20:10.191Z,101529.78
2023-03-30T09:22:42.423Z,101533.88
2023-03-30T09:25:15.341Z,101529.00
2023-03-30T09:27:55.548Z,101524.72
2023-03-30T09:30:30.536Z,101524.41
2023-03-30T09:33:00.884Z,101534.53
2023-03-30T09:35:40.704Z,101529.81
2023-03-30T09:38:12.937Z,101526.94
2023-03-30T09:41:09.572Z,101531.56
2023-03-30T09:43:44.216Z,101520.63
2023-03-30T09:46:11.234Z,101509.97
2023-03-30T09:48:48.668Z,101508.38
2023-03-30T09:51:21.472Z,101499.56
2023-03-30T09:53:51.288Z,101499.84
2023-03-30T09:56:46.920Z,101498.78
2023-03-30T09:59:35.132Z,101497.63
2023-03-30T10:02:19.214Z,101492.28
2023-03-30T10:05:04.340Z,101483.47
2023-03-30T10:07:39.579Z,101485.66
2023-03-30T10:10:16.887Z,101490.06
2023-03-30T10:12:44.709Z,101485.31
2023-03-30T10:15:16.887Z,101486.50
2023-03-30T10:17:46.652Z,101481.75
2023-03-30T10:20:15.816Z,101481.00
2023-03-30T10:22:53.644Z,101474.63
2023-03-30T10:25:27.300Z,101475.91
2023-03-30T10:27:57.257Z,101462.00
2023-03-30T10:30:27.118Z,101458.38
2023-03-30T10:32:59.275Z,101465.97
2023-03-30T10:35:31.787Z,101469.41
2023-03-30T10:38:01.716Z,101469.69
2023-03-30T10:40:41.036Z,101459.69
2023-03-30T10:43:17.650Z,101451.53
2023-03-30T10:45:47.853Z,101444.50
2023-03-30T10:48:44.238Z,101441.34
2023-03-30T10:51:52.570Z,101443.47
2023-03-30T10:54:30.691Z,101425.56
2023-03-30T10:57:11.572Z,101416.25
2023-03-30T10:59:59.988Z,101426.13
2023-03-30T11:02:41.739Z,101421.75
2023-03-30T11:05:18.186Z,101418.59
2023-03-30T11:07:54.840Z,101413.84
2023-03-30T11:10:31.469Z,101406.81
2023-03-30T11:13:05.807Z,101405.81
2023-03-30T11:15:50.881Z,101394.66
2023-03-30T11:18:21.854Z,101404.16
2023-03-30T11:20:58.851Z,101404.25
2023-03-30T11:23:50.724Z,101408.91
2023-03-30T11:26:29.713Z,101399.56
2023-03-30T11:28:59.034Z,101398.75
2023-03-30T11:31:40.471Z,101394.28
2023-03-30T11:34:36.433Z,101391.84
2023-03-30T11:37:13.777Z,101386.13
2023-03-30T11:39:48.988Z,101390.69
2023-03-30T11:42:29.934Z,101388.41
2023-03-30T11:44:56.808Z,101394.06
2023-03-30T11:47:41.562Z,101390.00
2023-03-30T11:50:23.799Z,101380.03
2023-03-30T11:52:59.239Z,101373.53
2023-03-30T11:55:51.004Z,101380.22
2023-03-30T11:58:17.382Z,101385.84
2023-03-30T12:00:54.655Z,101387.75
2023-03-30T12:03:42.783Z,101384.25
2023-03-30T12:06:11.080Z,101380.84
2023-03-30T12:08:52.677Z,101368.34
2023-03-30T12:11:52.397Z,101373.63
2023-03-30T12:14:36.279Z,101376.41
2023-03-30T12:17:12.186Z,101374.31
2023-03-30T12:19:55.429Z,101364.81
2023-03-30T12:22:36.054Z,101362.09
2023-03-30T12:25:34.798Z,101362.75
2023-03-30T12:28:07.244Z,101357.78
2023-03-30T12:30:55.723Z,101363.94
2023-03-30T12:33:36.878Z,101371.06
2023-03-30T12:36:28.179Z,101364.91
2023-03-30T12:38:57.645Z,101365.13
2023-03-30T12:41:26.650Z,101353.41
2023-03-30T12:44:14.912Z,101350.50
2023-03-30T12:46:52.687Z,101355.91
2023-03-30T12:49:45.047Z,101343.94
2023-03-30T12:52:25.035Z,101345.78
2023-03-30T12:55:02.555Z,101338.94
2023-03-30T12:57:43.000Z,101327.44
2023-03-30T13:00:52.804Z,101330.75
2023-03-30T13:03:29.413Z,101322.06
2023-03-30T13:05:59.865Z,101316.84
2023-03-30T13:08:36.933Z,101314.16
2023-03-30T13:11:12.924Z,101309.66
2023-03-30T13:13:56.228Z,101310.13
2023-03-30T13:16:50.248Z,101298.25
2023-03-30T13:19:38.069Z,101295.09
2023-03-30T13:22:10.632Z,101291.00
2023-03-30T13:24:44.368Z,101286.63
2023-03-30T13:27:13.686Z,101275.38
2023-03-30T13:29:52.536Z,101275.69
2023-03-30T13:32:22.019Z,101271.75
2023-03-30T13:35:07.448Z,101281.78
2023-03-30T13:37:52.336Z,101285.50
2023-03-30T13:40:43.735Z,101291.59
2023-03-30T13:43:58.135Z,101292.16
2023-03-30T13:46:40.920Z,101294.38
2023-03-30T13:49:39.988Z,101274.28
2023-03-30T13:52:14.147Z,101257.81
2023-03-30T13:54:41.647Z,101250.25
2023-03-30T13:57:09.547Z,101234.38
2023-03-30T13:59:41.554Z,101216.91
2023-03-30T14:02:14.623Z,101214.31
2023-03-30T14:04:41.055Z,101208.19
2023-03-30T14:07:25.625Z,101204.03
2023-03-30T14:10:06.296Z,101228.16
2023-03-30T14:12:34.449Z,101221.06
2023-03-30T14:15:02.096Z,101221.94
2023-03-30T14:17:28.796Z,101213.47
2023-03-30T14:20:16.702Z,101219.00
2023-03-30T14:22:47.337Z,101214.16
2023-03-30T14:25:23.148Z,101213.94
2023-03-30T14:27:49.949Z,101206.63
2023-03-30T14:30:22.558Z,101190.25
2023-03-30T14:33:09.062Z,101178.63
2023-03-30T14:35:42.191Z,101181.09
2023-03-30T14:38:17.388Z,101184.16
2023-03-30T14:40:45.909Z,101182.78
2023-03-30T14:43:40.680Z,101172.41
2023-03-30T14:46:11.748Z,101166.88
2023-03-30T14:48:42.522Z,101170.25
2023-03-30T14:51:37.740Z,101169.91
2023-03-30T14:54:05.901Z,101168.31
2023-03-30T14:56:32.890Z,101190.25
2023-03-30T14:59:00.262Z,101179.59
2023-03-30T15:01:31.643Z,101178.47
2023-03-30T15:04:14.756Z,101168.97
2023-03-30T15:06:42.098Z,101166.25
2023-03-30T15:09:16.362Z,101157.81
2023-03-30T15:11:48.005Z,101155.09
2023-03-30T15:14:19.962Z,101147.31
2023-03-30T15:16:53.337Z,101148.06
2023-03-30T15:19:31.404Z,101143.69
2023-03-30T15:22:03.020Z,101146.09
2023-03-30T15:24:34.286Z,101136.59
2023-03-30T15:27:03.912Z,101140.06
2023-03-30T15:29:31.941Z,101133.97
2023-03-30T15:32:05.402Z,101129.81
2023-03-30T15:34:32.012Z,101127.09
2023-03-30T15:36:58.947Z,101126.97
2023-03-30T15:39:33.867Z,101119.09
2023-03-30T15:42:06.033Z,101122.69
2023-03-30T15:44:38.360Z,101123.72
2023-03-30T15:47:12.303Z,101115.91
2023-03-30T15:49:45.973Z,101110.72
2023-03-30T15:52:18.854Z,101109.09
2023-03-30T15:54:52.776Z,101101.22
2023-03-30T15:57:29.678Z,101108.91
2023-03-30T16:00:01.941Z,101102.94
2023-03-30T16:02:31.729Z,101103.00
2023-03-30T16:05:00.673Z,101104.59
2023-03-30T16:07:28.437Z,101103.69
2023-03-30T16:09:54.998Z,101088.69
2023-03-30T16:12:27.566Z,101097.28
2023-03-30T16:14:54.243Z,101092.88
2023-03-30T16:17:21.171Z,101097.16
2023-03-30T16:19:47.766Z,101101.34
2023-03-30T16:22:15.893Z,101102.41
2023-03-30T16:24:53.981Z,101098.44
2023-03-30T16:27:20.628Z,101094.50
2023-03-30T16:29:50.680Z,101091.69
2023-03-30T16:32:21.225Z,101086.50
2023-03-30T16:34:48.361Z,101077.59
2023-03-30T16:37:15.202Z,101092.06
2023-03-30T16:39:42.593Z,101096.78
2023-03-30T16:42:09.012Z,101096.44
2023-03-30T16:44:36.358Z,101078.75
2023-03-30T16:47:02.914Z,101086.09
2023-03-30T16:49:29.352Z,101073.28
2023-03-30T16:51:58.217Z,101078.03
2023-03-30T16:54:32.036Z,101074.66
2023-03-30T16:56:59.466Z,101079.50
2023-03-30T16:59:29.115Z,101083.19
2023-03-30T17:01:56.067Z,101083.41
2023-03-30T17:04:22.639Z,101084.88
2023-03-30T17:06:49.472Z,101084.28
2023-03-30T17:09:18.557Z,101078.66
2023-03-30T17:11:46.752Z,101073.88
2023-03-30T17:14:13.944Z,101073.41
2023-03-30T17:16:41.392Z,101071.28
2023-03-30T17:19:13.577Z,101078.69
2023-03-30T17:21:48.814Z,101075.53
2023-03-30T17:24:25.101Z,101077.88
2023-03-30T17:26:54.164Z,101072.19
2023-03-30T17:29:25.466Z,101068.25
2023-03-30T17:31:55.768Z,101067.47
2023-03-30T17:34:36.461Z,101078.50
2023-03-30T17:37:04.007Z,101070.50
2023-03-30T17:39:30.978Z,101065.19
2023-03-30T17:42:03.665Z,101067.66
2023-03-30T17:44:52.876Z,101078.53
2023-03-30T17:47:28.905Z,101084.25
2023-03-30T17:49:55.402Z,101084.88
2023-03-30T17:52:21.966Z,101073.53
2023-03-30T17:54:48.362Z,101081.31
2023-03-30T17:57:14.884Z,101080.88
2023-03-30T17:59:41.341Z,101077.47
2023-03-30T18:02:07.975Z,101074.13
2023-03-30T18:04:35.188Z,101075.69
2023-03-30T18:07:02.941Z,101066.13
2023-03-30T18:09:29.386Z,101053.19
2023-03-30T18:11:55.821Z,101049.91
2023-03-30T18:14:22.284Z,101055.63
2023-03-30T18:16:50.344Z,101056.03
2023-03-30T18:19:16.878Z,101065.16
2023-03-30T18:21:43.336Z,101059.50
2023-03-30T18:24:09.741Z,101066.34
2023-03-30T18:26:36.348Z,101066.13
2023-03-30T18:29:03.230Z,101068.84
2023-03-30T18:31:29.661Z,101070.63
2023-03-30T18:33:56.102Z,101062.88
2023-03-30T18:36:22.696Z,101064.69
2023-03-30T18:38:50.211Z,101077.88
2023-03-30T18:41:16.697Z,101075.41
2023-03-30T18:43:43.158Z,101076.31
2023-03-30T18:46:12.410Z,101069.44
2023-03-30T18:48:39.011Z,101063.88
2023-03-30T18:51:05.660Z,101065.31
2023-03-30T18:53:32.073Z,101065.97
2023-03-30T18:56:01.879Z,101059.78
2023-03-30T18:58:33.405Z,101053.34
2023-03-30T19:01:00.342Z,101056.72
2023-03-30T19:03:28.252Z,101064.22
2023-03-30T19:05:54.735Z,101066.59
2023-03-30T19:08:23.675Z,101068.16
2023-03-30T19:10:52.261Z,101070.50
2023-03-30T19:13:20.367Z,101074.66
2023-03-30T19:15:48.302Z,101066.88
2023-03-30T19:18:15.666Z,101071.03
2023-03-30T19:20:42.166Z,101077.91
2023-03-30T19:23:12.406Z,101083.97
2023-03-30T19:25:39.797Z,101083.06
2023-03-30T19:28:07.035Z,101094.31
2023-03-30T19:30:37.475Z,101110.34
2023-03-30T19:33:12.149Z,101101.28
2023-03-30T19:35:43.392Z,101101.06
2023-03-30T19:38:09.847Z,101103.63
2023-03-30T19:40:38.073Z,101103.13
2023-03-30T19:43:04.602Z,101093.66
2023-03-30T19:45:31.723Z,101097.50
2023-03-30T19:47:58.282Z,101101.56
2023-03-30T19:50:25.004Z,101102.22
2023-03-30T19:52:51.727Z,101111.78
2023-03-30T19:55:19.293Z,101103.13
2023-03-30T19:57:46.200Z,101097.66
2023-03-30T20:00:15.880Z,101100.16
2023-03-30T20:02:48.231Z,101104.31
2023-03-30T20:05:15.852Z,101106.00
2023-03-30T20:07:44.219Z,101103.50
2023-03-30T20:10:13.408Z,101103.50
2023-03-30T20:12:39.825Z,101100.53
2023-03-30T20:15:08.138Z,101112.06
2023-03-30T20:17:36.412Z,101118.13
2023-03-30T20:20:08.707Z,101119.47
2023-03-30T20:22:41.224Z,101113.00
2023-03-30T20:25:10.378Z,101122.06
2023-03-30T20:27:37.116Z,101121.56
2023-03-30T20:30:05.932Z,101130.09
2023-03-30T20:32:34.072Z,101127.78
2023-03-30T20:35:00.621Z,101126.00
2023-03-30T20:37:27.025Z,101127.28
2023-03-30T20:39:53.425Z,101128.03
2023-03-30T20:42:26.239Z,101127.94
2023-03-30T20:44:53.446Z,101137.09
2023-03-30T20:47:23.207Z,101131.81
2023-03-30T20:49:49.750Z,101127.53
2023-03-30T20:52:16.795Z,101134.78
2023-03-30T20:54:44.414Z,101127.13
2023-03-30T20:57:11.505Z,101116.53
2023-03-30T20:59:39.324Z,101114.63
2023-03-30T21:02:05.814Z,101099.84
2023-03-30T21:04:36.430Z,101104.78
2023-03-30T21:07:03.060Z,101104.28
2023-03-30T21:09:29.638Z,101112.56
2023-03-30T21:11:56.191Z,101108.97
2023-03-30T21:14:24.058Z,101099.13
2023-03-30T21:16:50.773Z,101095.28
2023-03-30T21:19:17.243Z,101093.72
2023-03-30T21:21:43.719Z,101093.94
2023-03-30T21:24:11.201Z,101105.84
2023-03-30T21:26:38.030Z,101100.53
2023-03-30T21:29:05.016Z,101100.28
2023-03-30T21:31:31.858Z,101095.50
2023-03-30T21:33:58.517Z,101089.03
2023-03-30T21:36:25.142Z,101088.66
2023-03-30T21:38:51.671Z,101079.75
2023-03-30T21:41:21.033Z,101072.50
2023-03-30T21:43:48.130Z,101077.00
2023-03-30T21:46:17.607Z,101068.38
2023-03-30T21:48:45.854Z,101073.53
2023-03-30T21:51:16.714Z,101066.03
2023-03-30T21:53:48.151Z,101065.75
2023-03-30T21:56:15.314Z,101066.03
2023-03-30T21:58:41.893Z,101050.78
2023-03-30T22:01:12.410Z,101064.03
2023-03-30T22:03:41.217Z,101070.19
2023-03-30T22:06:10.726Z,101064.78
2023-03-30T22:08:37.217Z,101064.69
2023-03-30T22:11:15.325Z,101059.28
2023-03-30T22:13:41.829Z,101059.13
2023-03-30T22:16:24.608Z,101056.78
2023-03-30T22:18:51.782Z,101048.69
2023-03-30T22:21:24.771Z,101043.38
2023-03-30T22:23:53.017Z,101045.31
2023-03-30T22:26:19.627Z,101040.66
2023-03-30T22:28:46.674Z,101045.53
2023-03-30T22:31:15.191Z,101047.78
2023-03-30T22:33:42.205Z,101055.75
2023-03-30T22:36:23.789Z,101049.31
2023-03-30T22:38:51.701Z,101044.16
2023-03-30T22:41:23.614Z,101047.13
2023-03-30T22:43:51.883Z,101049.41
2023-03-30T22:46:18.332Z,101041.88
2023-03-30T22:48:45.208Z,101041.47
2023-03-30T22:51:14.548Z,101036.78
2023-03-30T22:53:41.175Z,101048.94
2023-03-30T22:56:08.096Z,101045.81
2023-03-30T22:58:35.945Z,101049.66
2023-03-30T23:01:05.991Z,101050.78
2023-03-30T23:03:33.046Z,101045.28
2023-03-30T23:06:01.526Z,101049.53
2023-03-30T23:08:31.423Z,101035.78
2023-03-30T23:11:04.029Z,101038.38
2023-03-30T23:13:31.595Z,101035.47
2023-03-30T23:15:58.504Z,101034.00
2023-03-30T23:18:25.222Z,101037.34
2023-03-30T23:20:53.829Z,101039.56
2023-03-30T23:23:20.902Z,101039.22
2023-03-30T23:25:51.437Z,101050.22
2023-03-30T23:28:18.388Z,101041.19
2023-03-30T23:30:44.946Z,101050.50
2023-03-30T23:33:12.065Z,101053.06
2023-03-30T23:35:38.552Z,101049.66
2023-03-30T23:38:04.977Z,101049.66
2023-03-30T23:40:31.817Z,101056.59
2023-03-30T23:42:58.222Z,101056.69
2023-03-30T23:45:24.688Z,101052.81
2023-03-30T23:47:51.394Z,101048.63
2023-03-30T23:50:17.775Z,101043.69
2023-03-30T23:52:44.182Z,101038.78
2023-03-30T23:55:11.113Z,101045.84
2023-03-30T23:57:37.524Z,101037.47
